Terminal Aerodrome Forecast
Issued by NWS Mobile, AL

Home | Current Version | Previous Version | Text Only | Print | Product List | Glossary On
Versions: 1 2 3 4 5 6 7 8 9 10 11 12 13 14
000
FTUS44 KMOB 280534
TAFPNS
TAF
KPNS 280534Z 2806/2906 21008KT P6SM BKN010
     FM280900 20008KT P6SM BKN005 OVC015
     FM281500 23010KT P6SM SCT005 BKN015=

USA.gov is the U.S. government's official web portal to all federal, state and local government web resources and services.